sensor_id;sensor_type;location;lat;lon;timestamp;temperature;humidity
57434;DHT22;43277;52.672;6.984;2024-01-07T00:00:16;1.10;99.90
57434;DHT22;43277;52.672;6.984;2024-01-07T00:02:42;1.10;99.90
57434;DHT22;43277;52.672;6.984;2024-01-07T00:05:08;1.10;99.90
57434;DHT22;43277;52.672;6.984;2024-01-07T00:07:33;1.10;99.90
57434;DHT22;43277;52.672;6.984;2024-01-07T00:09:59;1.10;99.90
57434;DHT22;43277;52.672;6.984;2024-01-07T00:12:24;1.10;99.90
57434;DHT22;43277;52.672;6.984;2024-01-07T00:14:50;1.00;99.90
57434;DHT22;43277;52.672;6.984;2024-01-07T00:17:16;1.00;99.90
57434;DHT22;43277;52.672;6.984;2024-01-07T00:19:42;1.10;99.90
57434;DHT22;43277;52.672;6.984;2024-01-07T00:22:07;1.10;99.90
57434;DHT22;43277;52.672;6.984;2024-01-07T00:24:33;1.10;99.90
57434;DHT22;43277;52.672;6.984;2024-01-07T00:26:59;1.10;99.90
57434;DHT22;43277;52.672;6.984;2024-01-07T00:29:24;1.10;99.90
57434;DHT22;43277;52.672;6.984;2024-01-07T00:31:50;1.10;99.90
57434;DHT22;43277;52.672;6.984;2024-01-07T00:34:18;1.10;99.90
57434;DHT22;43277;52.672;6.984;2024-01-07T00:36:43;1.10;99.90
57434;DHT22;43277;52.672;6.984;2024-01-07T00:39:09;1.10;99.90
57434;DHT22;43277;52.672;6.984;2024-01-07T00:41:34;1.10;99.90
57434;DHT22;43277;52.672;6.984;2024-01-07T00:44:00;1.10;99.90
57434;DHT22;43277;52.672;6.984;2024-01-07T00:46:25;1.10;99.90
57434;DHT22;43277;52.672;6.984;2024-01-07T00:48:51;1.10;99.90
57434;DHT22;43277;52.672;6.984;2024-01-07T00:51:17;1.10;99.90
57434;DHT22;43277;52.672;6.984;2024-01-07T00:53:42;1.10;99.90
57434;DHT22;43277;52.672;6.984;2024-01-07T00:56:08;1.10;99.90
57434;DHT22;43277;52.672;6.984;2024-01-07T00:58:34;1.10;99.90
57434;DHT22;43277;52.672;6.984;2024-01-07T01:01:01;1.10;99.90
57434;DHT22;43277;52.672;6.984;2024-01-07T01:03:27;1.10;99.90
57434;DHT22;43277;52.672;6.984;2024-01-07T01:05:53;1.10;99.90
57434;DHT22;43277;52.672;6.984;2024-01-07T01:08:18;1.10;99.90
57434;DHT22;43277;52.672;6.984;2024-01-07T01:10:44;1.10;99.90
57434;DHT22;43277;52.672;6.984;2024-01-07T01:13:10;1.00;99.90
57434;DHT22;43277;52.672;6.984;2024-01-07T01:15:35;1.00;99.90
57434;DHT22;43277;52.672;6.984;2024-01-07T01:18:01;1.00;99.90
57434;DHT22;43277;52.672;6.984;2024-01-07T01:20:27;1.00;99.90
57434;DHT22;43277;52.672;6.984;2024-01-07T01:22:52;1.00;99.90
57434;DHT22;43277;52.672;6.984;2024-01-07T01:25:18;0.90;99.90
57434;DHT22;43277;52.672;6.984;2024-01-07T01:27:43;0.90;99.90
57434;DHT22;43277;52.672;6.984;2024-01-07T01:30:11;1.00;99.90
57434;DHT22;43277;52.672;6.984;2024-01-07T01:32:36;0.90;99.90
57434;DHT22;43277;52.672;6.984;2024-01-07T01:35:02;0.90;99.90
57434;DHT22;43277;52.672;6.984;2024-01-07T01:37:27;0.90;99.90
57434;DHT22;43277;52.672;6.984;2024-01-07T01:39:53;0.90;99.90
57434;DHT22;43277;52.672;6.984;2024-01-07T01:42:18;0.90;99.90
57434;DHT22;43277;52.672;6.984;2024-01-07T01:44:46;0.90;99.90
57434;DHT22;43277;52.672;6.984;2024-01-07T01:47:12;0.80;99.90
57434;DHT22;43277;52.672;6.984;2024-01-07T01:49:38;0.90;99.90
57434;DHT22;43277;52.672;6.984;2024-01-07T01:52:04;0.90;99.90
57434;DHT22;43277;52.672;6.984;2024-01-07T01:54:30;0.80;99.90
57434;DHT22;43277;52.672;6.984;2024-01-07T01:56:55;0.80;99.90
57434;DHT22;43277;52.672;6.984;2024-01-07T01:59:21;0.80;99.90
57434;DHT22;43277;52.672;6.984;2024-01-07T02:01:47;0.80;99.90
57434;DHT22;43277;52.672;6.984;2024-01-07T02:04:14;0.80;99.90
57434;DHT22;43277;52.672;6.984;2024-01-07T02:06:40;0.80;99.90
57434;DHT22;43277;52.672;6.984;2024-01-07T02:09:06;0.80;99.90
57434;DHT22;43277;52.672;6.984;2024-01-07T02:11:31;0.80;99.90
57434;DHT22;43277;52.672;6.984;2024-01-07T02:13:57;0.90;99.90
57434;DHT22;43277;52.672;6.984;2024-01-07T02:16:23;0.90;99.90
57434;DHT22;43277;52.672;6.984;2024-01-07T02:18:48;0.80;99.90
57434;DHT22;43277;52.672;6.984;2024-01-07T02:21:14;0.90;99.90
57434;DHT22;43277;52.672;6.984;2024-01-07T02:23:40;0.90;99.90
57434;DHT22;43277;52.672;6.984;2024-01-07T02:26:06;0.80;99.90
57434;DHT22;43277;52.672;6.984;2024-01-07T02:28:33;0.80;99.90
57434;DHT22;43277;52.672;6.984;2024-01-07T02:30:59;0.80;99.90
57434;DHT22;43277;52.672;6.984;2024-01-07T02:33:24;0.80;99.90
57434;DHT22;43277;52.672;6.984;2024-01-07T02:35:50;0.90;99.90
57434;DHT22;43277;52.672;6.984;2024-01-07T02:38:15;0.80;99.90
57434;DHT22;43277;52.672;6.984;2024-01-07T02:40:41;0.80;99.90
57434;DHT22;43277;52.672;6.984;2024-01-07T02:43:07;0.80;99.90
57434;DHT22;43277;52.672;6.984;2024-01-07T02:45:33;0.80;99.90
57434;DHT22;43277;52.672;6.984;2024-01-07T02:47:58;0.70;99.90
57434;DHT22;43277;52.672;6.984;2024-01-07T02:50:24;0.80;99.90
57434;DHT22;43277;52.672;6.984;2024-01-07T02:52:49;0.80;99.90
57434;DHT22;43277;52.672;6.984;2024-01-07T02:55:15;0.80;99.90
57434;DHT22;43277;52.672;6.984;2024-01-07T02:57:41;0.80;99.90
57434;DHT22;43277;52.672;6.984;2024-01-07T03:00:07;0.70;99.90
57434;DHT22;43277;52.672;6.984;2024-01-07T03:02:33;0.70;99.90
57434;DHT22;43277;52.672;6.984;2024-01-07T03:04:58;0.70;99.90
57434;DHT22;43277;52.672;6.984;2024-01-07T03:07:25;0.70;99.90
57434;DHT22;43277;52.672;6.984;2024-01-07T03:09:50;0.70;99.90
57434;DHT22;43277;52.672;6.984;2024-01-07T03:12:16;0.70;99.90
57434;DHT22;43277;52.672;6.984;2024-01-07T03:14:42;0.70;99.90
57434;DHT22;43277;52.672;6.984;2024-01-07T03:17:07;0.70;99.90
57434;DHT22;43277;52.672;6.984;2024-01-07T03:19:33;0.70;99.90
57434;DHT22;43277;52.672;6.984;2024-01-07T03:21:58;0.70;99.90
57434;DHT22;43277;52.672;6.984;2024-01-07T03:24:24;0.80;99.90
57434;DHT22;43277;52.672;6.984;2024-01-07T03:26:50;0.70;99.90
57434;DHT22;43277;52.672;6.984;2024-01-07T03:29:15;0.70;99.90
57434;DHT22;43277;52.672;6.984;2024-01-07T03:31:41;0.80;99.90
57434;DHT22;43277;52.672;6.984;2024-01-07T03:34:06;0.70;99.90
57434;DHT22;43277;52.672;6.984;2024-01-07T03:36:32;0.70;99.90
57434;DHT22;43277;52.672;6.984;2024-01-07T03:38:58;0.70;99.90
57434;DHT22;43277;52.672;6.984;2024-01-07T03:41:23;0.70;99.90
57434;DHT22;43277;52.672;6.984;2024-01-07T03:43:49;0.70;99.90
57434;DHT22;43277;52.672;6.984;2024-01-07T03:46:16;0.70;99.90
57434;DHT22;43277;52.672;6.984;2024-01-07T03:48:44;0.70;99.90
57434;DHT22;43277;52.672;6.984;2024-01-07T03:51:10;0.80;99.90
57434;DHT22;43277;52.672;6.984;2024-01-07T03:53:35;0.70;99.90
57434;DHT22;43277;52.672;6.984;2024-01-07T03:56:01;0.70;99.90
57434;DHT22;43277;52.672;6.984;2024-01-07T03:58:26;0.60;99.90
57434;DHT22;43277;52.672;6.984;2024-01-07T04:00:52;0.70;99.90
57434;DHT22;43277;52.672;6.984;2024-01-07T04:03:18;0.70;99.90
57434;DHT22;43277;52.672;6.984;2024-01-07T04:05:43;0.70;99.90
57434;DHT22;43277;52.672;6.984;2024-01-07T04:08:11;0.70;99.90
57434;DHT22;43277;52.672;6.984;2024-01-07T04:10:37;0.70;99.90
57434;DHT22;43277;52.672;6.984;2024-01-07T04:13:03;0.70;99.90
57434;DHT22;43277;52.672;6.984;2024-01-07T04:15:29;0.70;99.90
57434;DHT22;43277;52.672;6.984;2024-01-07T04:17:55;0.70;99.90
57434;DHT22;43277;52.672;6.984;2024-01-07T04:20:21;0.70;99.90
57434;DHT22;43277;52.672;6.984;2024-01-07T04:22:46;0.70;99.90
57434;DHT22;43277;52.672;6.984;2024-01-07T04:25:12;0.70;99.90
57434;DHT22;43277;52.672;6.984;2024-01-07T04:27:38;0.70;99.90
57434;DHT22;43277;52.672;6.984;2024-01-07T04:30:05;0.70;99.90
57434;DHT22;43277;52.672;6.984;2024-01-07T04:32:31;0.60;99.90
57434;DHT22;43277;52.672;6.984;2024-01-07T04:34:56;0.60;99.90
57434;DHT22;43277;52.672;6.984;2024-01-07T04:37:23;0.60;99.90
57434;DHT22;43277;52.672;6.984;2024-01-07T04:39:49;0.50;99.90
57434;DHT22;43277;52.672;6.984;2024-01-07T04:42:15;0.50;99.90
57434;DHT22;43277;52.672;6.984;2024-01-07T04:44:41;0.50;99.90
57434;DHT22;43277;52.672;6.984;2024-01-07T04:47:26;0.50;99.90
57434;DHT22;43277;52.672;6.984;2024-01-07T04:49:53;0.60;99.90
57434;DHT22;43277;52.672;6.984;2024-01-07T04:52:19;0.50;99.90
57434;DHT22;43277;52.672;6.984;2024-01-07T04:54:44;0.50;99.90
57434;DHT22;43277;52.672;6.984;2024-01-07T04:57:10;0.50;99.90
57434;DHT22;43277;52.672;6.984;2024-01-07T04:59:38;0.40;99.90
57434;DHT22;43277;52.672;6.984;2024-01-07T05:02:03;0.40;99.90
57434;DHT22;43277;52.672;6.984;2024-01-07T05:04:29;0.40;99.90
57434;DHT22;43277;52.672;6.984;2024-01-07T05:06:55;0.30;99.90
57434;DHT22;43277;52.672;6.984;2024-01-07T05:09:20;0.30;99.90
57434;DHT22;43277;52.672;6.984;2024-01-07T05:11:46;0.30;99.90
57434;DHT22;43277;52.672;6.984;2024-01-07T05:14:11;0.40;99.90
57434;DHT22;43277;52.672;6.984;2024-01-07T05:16:37;0.30;99.90
57434;DHT22;43277;52.672;6.984;2024-01-07T05:19:03;0.40;99.90
57434;DHT22;43277;52.672;6.984;2024-01-07T05:21:29;0.30;99.90
57434;DHT22;43277;52.672;6.984;2024-01-07T05:23:54;0.40;99.90
57434;DHT22;43277;52.672;6.984;2024-01-07T05:26:20;0.30;99.90
57434;DHT22;43277;52.672;6.984;2024-01-07T05:28:46;0.30;99.90
57434;DHT22;43277;52.672;6.984;2024-01-07T05:31:18;0.30;99.90
57434;DHT22;43277;52.672;6.984;2024-01-07T05:33:44;0.30;99.90
57434;DHT22;43277;52.672;6.984;2024-01-07T05:36:13;0.30;99.90
57434;DHT22;43277;52.672;6.984;2024-01-07T05:38:41;0.30;99.90
57434;DHT22;43277;52.672;6.984;2024-01-07T05:41:07;0.20;99.90
57434;DHT22;43277;52.672;6.984;2024-01-07T05:43:32;0.30;99.90
57434;DHT22;43277;52.672;6.984;2024-01-07T05:45:58;0.20;99.90
57434;DHT22;43277;52.672;6.984;2024-01-07T05:48:24;0.30;99.90
57434;DHT22;43277;52.672;6.984;2024-01-07T05:50:50;0.20;99.90
57434;DHT22;43277;52.672;6.984;2024-01-07T05:53:17;0.20;99.90
57434;DHT22;43277;52.672;6.984;2024-01-07T05:55:43;0.20;99.90
57434;DHT22;43277;52.672;6.984;2024-01-07T05:58:09;0.20;99.90
57434;DHT22;43277;52.672;6.984;2024-01-07T06:00:34;0.20;99.90
57434;DHT22;43277;52.672;6.984;2024-01-07T06:03:00;0.20;99.90
57434;DHT22;43277;52.672;6.984;2024-01-07T06:05:26;0.30;99.90
57434;DHT22;43277;52.672;6.984;2024-01-07T06:07:51;0.30;99.90
57434;DHT22;43277;52.672;6.984;2024-01-07T06:10:17;0.30;99.90
57434;DHT22;43277;52.672;6.984;2024-01-07T06:12:43;0.30;99.90
57434;DHT22;43277;52.672;6.984;2024-01-07T06:15:08;0.30;99.90
57434;DHT22;43277;52.672;6.984;2024-01-07T06:17:34;0.30;99.90
57434;DHT22;43277;52.672;6.984;2024-01-07T06:20:00;0.30;99.90
57434;DHT22;43277;52.672;6.984;2024-01-07T06:22:25;0.30;99.90
57434;DHT22;43277;52.672;6.984;2024-01-07T06:24:51;0.30;99.90
57434;DHT22;43277;52.672;6.984;2024-01-07T06:27:17;0.30;99.90
57434;DHT22;43277;52.672;6.984;2024-01-07T06:29:42;0.30;99.90
57434;DHT22;43277;52.672;6.984;2024-01-07T06:32:08;0.30;99.90
57434;DHT22;43277;52.672;6.984;2024-01-07T06:34:35;0.20;99.90
57434;DHT22;43277;52.672;6.984;2024-01-07T06:37:01;0.30;99.90
57434;DHT22;43277;52.672;6.984;2024-01-07T06:39:27;0.20;99.90
57434;DHT22;43277;52.672;6.984;2024-01-07T06:41:53;0.20;99.90
57434;DHT22;43277;52.672;6.984;2024-01-07T06:44:18;0.30;99.90
57434;DHT22;43277;52.672;6.984;2024-01-07T06:46:44;0.20;99.90
57434;DHT22;43277;52.672;6.984;2024-01-07T06:49:09;0.30;99.90
57434;DHT22;43277;52.672;6.984;2024-01-07T06:51:35;0.20;99.90
57434;DHT22;43277;52.672;6.984;2024-01-07T06:54:01;0.20;99.90
57434;DHT22;43277;52.672;6.984;2024-01-07T06:56:26;0.20;99.90
57434;DHT22;43277;52.672;6.984;2024-01-07T06:58:52;0.20;99.90
57434;DHT22;43277;52.672;6.984;2024-01-07T07:01:20;0.20;99.90
57434;DHT22;43277;52.672;6.984;2024-01-07T07:03:52;0.20;99.90
57434;DHT22;43277;52.672;6.984;2024-01-07T07:06:17;0.10;99.90
57434;DHT22;43277;52.672;6.984;2024-01-07T07:08:43;0.10;99.90
57434;DHT22;43277;52.672;6.984;2024-01-07T07:11:09;0.10;99.90
57434;DHT22;43277;52.672;6.984;2024-01-07T07:13:34;0.20;99.90
57434;DHT22;43277;52.672;6.984;2024-01-07T07:16:00;0.20;99.90
57434;DHT22;43277;52.672;6.984;2024-01-07T07:18:26;0.20;99.90
57434;DHT22;43277;52.672;6.984;2024-01-07T07:20:52;0.20;99.90
57434;DHT22;43277;52.672;6.984;2024-01-07T07:23:18;0.20;99.90
57434;DHT22;43277;52.672;6.984;2024-01-07T07:25:44;0.20;99.90
57434;DHT22;43277;52.672;6.984;2024-01-07T07:28:09;0.20;99.90
57434;DHT22;43277;52.672;6.984;2024-01-07T07:30:35;0.20;99.90
57434;DHT22;43277;52.672;6.984;2024-01-07T07:33:02;0.20;99.90
57434;DHT22;43277;52.672;6.984;2024-01-07T07:35:27;0.20;99.90
57434;DHT22;43277;52.672;6.984;2024-01-07T07:37:54;0.20;99.90
57434;DHT22;43277;52.672;6.984;2024-01-07T07:40:19;0.20;99.90
57434;DHT22;43277;52.672;6.984;2024-01-07T07:42:45;0.20;99.90
57434;DHT22;43277;52.672;6.984;2024-01-07T07:45:10;0.20;99.90
57434;DHT22;43277;52.672;6.984;2024-01-07T07:47:36;0.20;99.90
57434;DHT22;43277;52.672;6.984;2024-01-07T07:50:02;0.20;99.90
57434;DHT22;43277;52.672;6.984;2024-01-07T07:52:28;0.10;99.90
57434;DHT22;43277;52.672;6.984;2024-01-07T07:54:54;0.10;99.90
57434;DHT22;43277;52.672;6.984;2024-01-07T07:57:22;0.00;99.90
57434;DHT22;43277;52.672;6.984;2024-01-07T07:59:49;0.00;99.90
57434;DHT22;43277;52.672;6.984;2024-01-07T08:02:14;-0.10;99.90
57434;DHT22;43277;52.672;6.984;2024-01-07T08:04:40;-0.10;99.90
57434;DHT22;43277;52.672;6.984;2024-01-07T08:07:09;-0.10;99.90
57434;DHT22;43277;52.672;6.984;2024-01-07T08:09:35;-0.10;99.90
57434;DHT22;43277;52.672;6.984;2024-01-07T08:12:04;0.00;99.90
57434;DHT22;43277;52.672;6.984;2024-01-07T08:14:30;-0.10;99.90
57434;DHT22;43277;52.672;6.984;2024-01-07T08:16:56;0.00;99.90
57434;DHT22;43277;52.672;6.984;2024-01-07T08:19:21;0.00;99.90
57434;DHT22;43277;52.672;6.984;2024-01-07T08:21:47;0.00;99.90
57434;DHT22;43277;52.672;6.984;2024-01-07T08:24:12;0.10;99.90
57434;DHT22;43277;52.672;6.984;2024-01-07T08:26:38;0.10;99.90
57434;DHT22;43277;52.672;6.984;2024-01-07T08:29:04;0.00;99.90
57434;DHT22;43277;52.672;6.984;2024-01-07T08:31:30;0.00;99.90
57434;DHT22;43277;52.672;6.984;2024-01-07T08:33:56;0.00;99.90
57434;DHT22;43277;52.672;6.984;2024-01-07T08:36:21;0.00;99.90
57434;DHT22;43277;52.672;6.984;2024-01-07T08:38:47;0.00;99.90
57434;DHT22;43277;52.672;6.984;2024-01-07T08:41:15;0.00;99.90
57434;DHT22;43277;52.672;6.984;2024-01-07T08:43:41;-0.10;99.90
57434;DHT22;43277;52.672;6.984;2024-01-07T08:46:07;0.00;99.90
57434;DHT22;43277;52.672;6.984;2024-01-07T08:48:33;0.00;99.90
57434;DHT22;43277;52.672;6.984;2024-01-07T08:50:58;0.00;99.90
57434;DHT22;43277;52.672;6.984;2024-01-07T08:53:24;0.00;99.90
57434;DHT22;43277;52.672;6.984;2024-01-07T08:55:49;0.00;99.90
57434;DHT22;43277;52.672;6.984;2024-01-07T08:58:16;0.00;99.90
57434;DHT22;43277;52.672;6.984;2024-01-07T09:00:42;0.00;99.90
57434;DHT22;43277;52.672;6.984;2024-01-07T09:03:09;0.10;99.90
57434;DHT22;43277;52.672;6.984;2024-01-07T09:05:34;0.00;99.90
57434;DHT22;43277;52.672;6.984;2024-01-07T09:08:00;0.10;99.90
57434;DHT22;43277;52.672;6.984;2024-01-07T09:10:26;0.10;99.90
57434;DHT22;43277;52.672;6.984;2024-01-07T09:12:52;0.10;99.90
57434;DHT22;43277;52.672;6.984;2024-01-07T09:15:19;0.10;99.90
57434;DHT22;43277;52.672;6.984;2024-01-07T09:17:45;0.10;99.90
57434;DHT22;43277;52.672;6.984;2024-01-07T09:20:12;0.20;99.90
57434;DHT22;43277;52.672;6.984;2024-01-07T09:22:37;0.20;99.90
57434;DHT22;43277;52.672;6.984;2024-01-07T09:25:04;0.10;99.90
57434;DHT22;43277;52.672;6.984;2024-01-07T09:27:31;0.20;99.90
57434;DHT22;43277;52.672;6.984;2024-01-07T09:29:56;0.20;99.90
57434;DHT22;43277;52.672;6.984;2024-01-07T09:32:22;0.20;99.90
57434;DHT22;43277;52.672;6.984;2024-01-07T09:34:48;0.30;99.90
57434;DHT22;43277;52.672;6.984;2024-01-07T09:37:13;0.20;99.90
57434;DHT22;43277;52.672;6.984;2024-01-07T09:39:42;0.20;99.90
57434;DHT22;43277;52.672;6.984;2024-01-07T09:42:18;0.30;99.90
57434;DHT22;43277;52.672;6.984;2024-01-07T09:44:44;0.30;99.90
57434;DHT22;43277;52.672;6.984;2024-01-07T09:47:14;0.40;99.90
57434;DHT22;43277;52.672;6.984;2024-01-07T09:49:41;0.50;99.90
57434;DHT22;43277;52.672;6.984;2024-01-07T09:52:10;0.50;99.90
57434;DHT22;43277;52.672;6.984;2024-01-07T09:54:37;0.50;99.90
57434;DHT22;43277;52.672;6.984;2024-01-07T09:57:04;0.50;99.90
57434;DHT22;43277;52.672;6.984;2024-01-07T09:59:34;0.60;99.90
57434;DHT22;43277;52.672;6.984;2024-01-07T10:02:00;0.60;99.90
57434;DHT22;43277;52.672;6.984;2024-01-07T10:04:27;0.60;99.90
57434;DHT22;43277;52.672;6.984;2024-01-07T10:06:57;0.60;99.90
57434;DHT22;43277;52.672;6.984;2024-01-07T10:09:25;0.70;99.90
57434;DHT22;43277;52.672;6.984;2024-01-07T10:11:53;0.70;99.90
57434;DHT22;43277;52.672;6.984;2024-01-07T10:14:19;0.80;99.90
57434;DHT22;43277;52.672;6.984;2024-01-07T10:16:48;0.90;99.90
57434;DHT22;43277;52.672;6.984;2024-01-07T10:19:21;1.00;99.90
57434;DHT22;43277;52.672;6.984;2024-01-07T10:22:04;1.10;99.90
57434;DHT22;43277;52.672;6.984;2024-01-07T10:24:38;1.10;99.90
57434;DHT22;43277;52.672;6.984;2024-01-07T10:27:04;1.20;99.90
57434;DHT22;43277;52.672;6.984;2024-01-07T10:29:31;1.30;99.90
57434;DHT22;43277;52.672;6.984;2024-01-07T10:32:00;1.30;99.90
57434;DHT22;43277;52.672;6.984;2024-01-07T10:34:36;1.30;99.90
57434;DHT22;43277;52.672;6.984;2024-01-07T10:37:03;1.30;99.90
57434;DHT22;43277;52.672;6.984;2024-01-07T10:39:30;1.40;99.90
57434;DHT22;43277;52.672;6.984;2024-01-07T10:41:56;1.40;99.90
57434;DHT22;43277;52.672;6.984;2024-01-07T10:44:30;1.40;99.90
57434;DHT22;43277;52.672;6.984;2024-01-07T10:46:57;1.50;99.90
57434;DHT22;43277;52.672;6.984;2024-01-07T10:49:25;1.50;99.90
57434;DHT22;43277;52.672;6.984;2024-01-07T10:52:03;1.40;99.90
57434;DHT22;43277;52.672;6.984;2024-01-07T10:54:31;1.50;99.90
57434;DHT22;43277;52.672;6.984;2024-01-07T10:57:02;1.50;99.90
57434;DHT22;43277;52.672;6.984;2024-01-07T10:59:31;1.40;99.90
57434;DHT22;43277;52.672;6.984;2024-01-07T11:01:57;1.40;99.90
57434;DHT22;43277;52.672;6.984;2024-01-07T11:04:37;1.50;99.90
57434;DHT22;43277;52.672;6.984;2024-01-07T11:12:13;1.50;99.90
57434;DHT22;43277;52.672;6.984;2024-01-07T11:14:43;1.50;99.90
57434;DHT22;43277;52.672;6.984;2024-01-07T11:20:12;1.50;99.90
57434;DHT22;43277;52.672;6.984;2024-01-07T11:22:39;1.50;99.90
57434;DHT22;43277;52.672;6.984;2024-01-07T11:25:28;1.50;99.90
57434;DHT22;43277;52.672;6.984;2024-01-07T11:27:56;1.50;99.90
57434;DHT22;43277;52.672;6.984;2024-01-07T11:30:22;1.50;99.90
57434;DHT22;43277;52.672;6.984;2024-01-07T11:32:48;1.60;99.90
57434;DHT22;43277;52.672;6.984;2024-01-07T11:35:56;1.60;99.90
57434;DHT22;43277;52.672;6.984;2024-01-07T11:38:22;1.60;99.90
57434;DHT22;43277;52.672;6.984;2024-01-07T11:40:48;1.70;99.90
57434;DHT22;43277;52.672;6.984;2024-01-07T11:43:14;1.70;99.90
57434;DHT22;43277;52.672;6.984;2024-01-07T11:45:40;1.60;99.90
57434;DHT22;43277;52.672;6.984;2024-01-07T11:48:05;1.60;99.90
57434;DHT22;43277;52.672;6.984;2024-01-07T11:50:31;1.60;99.90
57434;DHT22;43277;52.672;6.984;2024-01-07T11:52:57;1.60;99.90
57434;DHT22;43277;52.672;6.984;2024-01-07T11:55:24;1.70;99.90
57434;DHT22;43277;52.672;6.984;2024-01-07T11:57:50;1.70;99.90
57434;DHT22;43277;52.672;6.984;2024-01-07T12:00:17;1.70;99.90
57434;DHT22;43277;52.672;6.984;2024-01-07T12:02:43;1.60;99.90
57434;DHT22;43277;52.672;6.984;2024-01-07T12:05:08;1.60;99.90
57434;DHT22;43277;52.672;6.984;2024-01-07T12:07:34;1.60;99.90
57434;DHT22;43277;52.672;6.984;2024-01-07T12:10:02;1.60;99.90
57434;DHT22;43277;52.672;6.984;2024-01-07T12:12:28;1.60;99.90
57434;DHT22;43277;52.672;6.984;2024-01-07T12:14:55;1.60;99.90
57434;DHT22;43277;52.672;6.984;2024-01-07T12:17:21;1.60;99.90
57434;DHT22;43277;52.672;6.984;2024-01-07T12:19:47;1.70;99.90
57434;DHT22;43277;52.672;6.984;2024-01-07T12:22:13;1.70;99.90
57434;DHT22;43277;52.672;6.984;2024-01-07T12:24:38;1.70;99.90
57434;DHT22;43277;52.672;6.984;2024-01-07T12:27:07;1.70;99.90
57434;DHT22;43277;52.672;6.984;2024-01-07T12:29:33;1.80;99.90
57434;DHT22;43277;52.672;6.984;2024-01-07T12:31:59;1.80;99.90
57434;DHT22;43277;52.672;6.984;2024-01-07T12:34:25;1.80;99.90
57434;DHT22;43277;52.672;6.984;2024-01-07T12:36:51;1.80;99.90
57434;DHT22;43277;52.672;6.984;2024-01-07T12:39:17;1.80;99.90
57434;DHT22;43277;52.672;6.984;2024-01-07T12:41:44;1.80;99.90
57434;DHT22;43277;52.672;6.984;2024-01-07T12:44:09;1.80;99.90
57434;DHT22;43277;52.672;6.984;2024-01-07T12:46:35;1.80;99.90
57434;DHT22;43277;52.672;6.984;2024-01-07T12:49:00;1.80;99.90
57434;DHT22;43277;52.672;6.984;2024-01-07T12:51:26;1.80;99.90
57434;DHT22;43277;52.672;6.984;2024-01-07T12:53:52;1.80;99.90
57434;DHT22;43277;52.672;6.984;2024-01-07T12:56:17;1.70;99.90
57434;DHT22;43277;52.672;6.984;2024-01-07T12:58:43;1.80;99.90
57434;DHT22;43277;52.672;6.984;2024-01-07T13:01:09;1.80;99.90
57434;DHT22;43277;52.672;6.984;2024-01-07T13:03:36;1.80;99.90
57434;DHT22;43277;52.672;6.984;2024-01-07T13:06:01;1.90;99.90
57434;DHT22;43277;52.672;6.984;2024-01-07T13:08:27;2.00;99.90
57434;DHT22;43277;52.672;6.984;2024-01-07T13:10:54;2.00;99.90
57434;DHT22;43277;52.672;6.984;2024-01-07T13:13:20;2.00;99.90
57434;DHT22;43277;52.672;6.984;2024-01-07T13:15:46;2.10;99.90
57434;DHT22;43277;52.672;6.984;2024-01-07T13:18:11;2.10;99.90
57434;DHT22;43277;52.672;6.984;2024-01-07T13:20:37;2.10;99.90
57434;DHT22;43277;52.672;6.984;2024-01-07T13:23:05;2.00;99.90
57434;DHT22;43277;52.672;6.984;2024-01-07T13:25:31;1.90;99.90
57434;DHT22;43277;52.672;6.984;2024-01-07T13:27:56;1.80;99.90
57434;DHT22;43277;52.672;6.984;2024-01-07T13:30:23;1.70;99.90
57434;DHT22;43277;52.672;6.984;2024-01-07T13:32:48;1.70;99.90
57434;DHT22;43277;52.672;6.984;2024-01-07T13:35:14;1.60;99.90
57434;DHT22;43277;52.672;6.984;2024-01-07T13:37:42;1.50;99.90
57434;DHT22;43277;52.672;6.984;2024-01-07T13:40:10;1.50;99.90
57434;DHT22;43277;52.672;6.984;2024-01-07T13:42:37;1.50;99.90
57434;DHT22;43277;52.672;6.984;2024-01-07T13:45:03;1.50;99.90
57434;DHT22;43277;52.672;6.984;2024-01-07T13:47:29;1.50;99.90
57434;DHT22;43277;52.672;6.984;2024-01-07T13:49:54;1.50;99.90
57434;DHT22;43277;52.672;6.984;2024-01-07T13:52:20;1.50;99.90
57434;DHT22;43277;52.672;6.984;2024-01-07T13:54:45;1.40;99.90
57434;DHT22;43277;52.672;6.984;2024-01-07T13:57:11;1.40;99.90
57434;DHT22;43277;52.672;6.984;2024-01-07T13:59:38;1.40;99.90
57434;DHT22;43277;52.672;6.984;2024-01-07T14:02:05;1.40;99.90
57434;DHT22;43277;52.672;6.984;2024-01-07T14:04:30;1.30;99.90
57434;DHT22;43277;52.672;6.984;2024-01-07T14:06:57;1.30;99.90
57434;DHT22;43277;52.672;6.984;2024-01-07T14:09:24;1.30;99.90
57434;DHT22;43277;52.672;6.984;2024-01-07T14:11:50;1.30;99.90
57434;DHT22;43277;52.672;6.984;2024-01-07T14:14:16;1.20;99.90
57434;DHT22;43277;52.672;6.984;2024-01-07T14:16:41;1.20;99.90
57434;DHT22;43277;52.672;6.984;2024-01-07T14:19:07;1.20;99.90
57434;DHT22;43277;52.672;6.984;2024-01-07T14:21:32;1.20;99.90
57434;DHT22;43277;52.672;6.984;2024-01-07T14:23:58;1.20;99.90
57434;DHT22;43277;52.672;6.984;2024-01-07T14:26:24;1.20;99.90
57434;DHT22;43277;52.672;6.984;2024-01-07T14:28:50;1.20;99.90
57434;DHT22;43277;52.672;6.984;2024-01-07T14:31:16;1.20;99.90
57434;DHT22;43277;52.672;6.984;2024-01-07T14:33:42;1.20;99.90
57434;DHT22;43277;52.672;6.984;2024-01-07T14:36:08;1.20;99.90
57434;DHT22;43277;52.672;6.984;2024-01-07T14:38:45;1.20;99.90
57434;DHT22;43277;52.672;6.984;2024-01-07T14:41:13;1.10;99.90
57434;DHT22;43277;52.672;6.984;2024-01-07T14:43:38;1.00;99.90
57434;DHT22;43277;52.672;6.984;2024-01-07T14:46:06;1.00;99.90
57434;DHT22;43277;52.672;6.984;2024-01-07T14:48:33;1.00;99.90
57434;DHT22;43277;52.672;6.984;2024-01-07T14:50:59;0.90;99.90
57434;DHT22;43277;52.672;6.984;2024-01-07T14:53:24;0.80;99.90
57434;DHT22;43277;52.672;6.984;2024-01-07T14:55:51;0.80;99.90
57434;DHT22;43277;52.672;6.984;2024-01-07T14:58:16;0.80;99.90
57434;DHT22;43277;52.672;6.984;2024-01-07T15:00:43;0.70;99.90
57434;DHT22;43277;52.672;6.984;2024-01-07T15:03:09;0.70;99.90
57434;DHT22;43277;52.672;6.984;2024-01-07T15:05:35;0.70;99.90
57434;DHT22;43277;52.672;6.984;2024-01-07T15:08:01;0.60;99.90
57434;DHT22;43277;52.672;6.984;2024-01-07T15:10:26;0.60;99.90
57434;DHT22;43277;52.672;6.984;2024-01-07T15:12:52;0.50;99.90
57434;DHT22;43277;52.672;6.984;2024-01-07T15:15:18;0.50;99.90
57434;DHT22;43277;52.672;6.984;2024-01-07T15:17:44;0.40;99.90
57434;DHT22;43277;52.672;6.984;2024-01-07T15:20:10;0.40;99.90
57434;DHT22;43277;52.672;6.984;2024-01-07T15:22:36;0.40;99.90
57434;DHT22;43277;52.672;6.984;2024-01-07T15:25:02;0.30;99.90
57434;DHT22;43277;52.672;6.984;2024-01-07T15:27:28;0.30;99.90
57434;DHT22;43277;52.672;6.984;2024-01-07T15:29:55;0.20;99.90
57434;DHT22;43277;52.672;6.984;2024-01-07T15:32:21;0.20;99.90
57434;DHT22;43277;52.672;6.984;2024-01-07T15:34:46;0.20;99.90
57434;DHT22;43277;52.672;6.984;2024-01-07T15:37:12;0.10;99.90
57434;DHT22;43277;52.672;6.984;2024-01-07T15:39:40;0.10;99.90
57434;DHT22;43277;52.672;6.984;2024-01-07T15:42:06;0.10;99.90
57434;DHT22;43277;52.672;6.984;2024-01-07T15:44:31;0.00;99.90
57434;DHT22;43277;52.672;6.984;2024-01-07T15:46:58;0.00;99.90